createdAt,value
2019-02-23T00:01:47.419Z,6.65
2019-02-23T00:04:18.217Z,6.65
2019-02-23T00:06:49.092Z,6.71
2019-02-23T00:09:20.003Z,6.66
2019-02-23T00:11:50.900Z,6.55
2019-02-23T00:14:22.539Z,6.47
2019-02-23T00:16:53.450Z,6.47
2019-02-23T00:19:25.304Z,6.41
2019-02-23T00:21:57.085Z,6.40
2019-02-23T00:24:27.876Z,6.37
2019-02-23T00:26:58.919Z,6.37
2019-02-23T00:29:29.866Z,6.39
2019-02-23T00:32:00.772Z,6.42
2019-02-23T00:34:31.629Z,6.38
2019-02-23T00:37:02.599Z,6.33
2019-02-23T00:39:33.407Z,6.26
2019-02-23T00:42:04.384Z,6.29
2019-02-23T00:44:35.189Z,6.45
2019-02-23T00:47:06.075Z,6.53
2019-02-23T00:49:36.866Z,6.54
2019-02-23T00:52:08.508Z,6.56
2019-02-23T00:54:39.455Z,6.54
2019-02-23T00:57:10.351Z,6.60
2019-02-23T00:59:41.239Z,6.55
2019-02-23T01:02:12.245Z,6.52
2019-02-23T01:04:44.016Z,6.62
2019-02-23T01:07:15.028Z,6.61
2019-02-23T01:09:45.889Z,6.53
2019-02-23T01:12:16.971Z,6.46
2019-02-23T01:14:47.870Z,6.44
2019-02-23T01:17:18.981Z,6.42
2019-02-23T01:19:49.850Z,6.35
2019-02-23T01:22:20.843Z,6.30
2019-02-23T01:24:51.837Z,6.23
2019-02-23T01:27:22.839Z,6.15
2019-02-23T01:29:53.623Z,6.12
2019-02-23T01:32:24.612Z,6.08
2019-02-23T01:34:55.482Z,6.05
2019-02-23T01:37:26.483Z,5.98
2019-02-23T01:39:57.377Z,5.96
2019-02-23T01:42:28.456Z,5.75
2019-02-23T01:44:59.345Z,5.60
2019-02-23T01:47:30.594Z,5.65
2019-02-23T01:50:01.551Z,5.65
2019-02-23T01:52:32.534Z,5.81
2019-02-23T01:55:03.403Z,5.87
2019-02-23T01:57:34.385Z,5.86
2019-02-23T02:00:06.315Z,5.95
2019-02-23T02:02:37.910Z,6.03
2019-02-23T02:05:08.819Z,6.18
2019-02-23T02:07:41.526Z,6.08
2019-02-23T02:10:12.626Z,6.14
2019-02-23T02:12:43.617Z,6.20
2019-02-23T02:15:15.333Z,6.31
2019-02-23T02:17:46.340Z,6.31
2019-02-23T02:20:17.295Z,6.30
2019-02-23T02:22:48.201Z,6.24
2019-02-23T02:25:19.126Z,6.23
2019-02-23T02:27:50.116Z,6.21
2019-02-23T02:30:21.172Z,6.20
2019-02-23T02:32:52.136Z,6.16
2019-02-23T02:35:22.931Z,6.07
2019-02-23T02:37:53.872Z,6.04
2019-02-23T02:40:24.708Z,5.97
2019-02-23T02:42:55.976Z,5.97
2019-02-23T02:45:26.886Z,5.77
2019-02-23T02:47:57.775Z,5.71
2019-02-23T02:50:28.770Z,5.71
2019-02-23T02:53:00.034Z,5.69
2019-02-23T02:55:30.971Z,5.65
2019-02-23T02:58:01.997Z,5.65
2019-02-23T03:00:32.946Z,5.66
2019-02-23T03:03:04.042Z,5.54
2019-02-23T03:05:34.907Z,5.48
2019-02-23T03:08:06.279Z,5.40
2019-02-23T03:10:37.111Z,5.41
2019-02-23T03:13:07.998Z,5.32
2019-02-23T03:15:38.790Z,5.22
2019-02-23T03:18:09.779Z,5.19
2019-02-23T03:20:40.650Z,5.26
2019-02-23T03:23:11.531Z,5.27
2019-02-23T03:25:42.313Z,5.20
2019-02-23T03:28:13.307Z,5.20
2019-02-23T03:30:44.211Z,5.19
2019-02-23T03:33:15.088Z,5.16
2019-02-23T03:35:45.978Z,5.14
2019-02-23T03:38:16.912Z,5.15
2019-02-23T03:40:47.954Z,5.04
2019-02-23T03:43:18.896Z,5.11
2019-02-23T03:45:49.638Z,5.09
2019-02-23T03:48:20.634Z,5.11
2019-02-23T03:50:51.416Z,5.19
2019-02-23T03:53:22.670Z,5.17
2019-02-23T03:55:53.579Z,5.24
2019-02-23T03:58:24.591Z,5.09
2019-02-23T04:00:55.371Z,5.06
2019-02-23T04:03:26.364Z,5.10
2019-02-23T04:05:57.249Z,5.02
2019-02-23T04:08:28.146Z,5.02
2019-02-23T04:10:58.927Z,4.95
2019-02-23T04:13:30.100Z,4.98
2019-02-23T04:16:00.898Z,5.00
2019-02-23T04:18:31.882Z,4.96
2019-02-23T04:21:02.989Z,4.88
2019-02-23T04:23:34.371Z,4.90
2019-02-23T04:26:05.157Z,4.86
2019-02-23T04:28:36.047Z,4.85
2019-02-23T04:31:06.822Z,4.90
2019-02-23T04:33:37.721Z,4.81
2019-02-23T04:36:08.606Z,4.63
2019-02-23T04:38:39.592Z,4.45
2019-02-23T04:41:10.607Z,4.37
2019-02-23T04:43:43.997Z,4.48
2019-02-23T04:46:13.998Z,4.42
2019-02-23T04:48:44.936Z,4.45
2019-02-23T04:51:15.773Z,4.43
2019-02-23T04:53:46.729Z,4.39
2019-02-23T04:56:17.677Z,4.39
2019-02-23T04:58:48.552Z,4.34
2019-02-23T05:01:19.328Z,4.39
2019-02-23T05:03:50.283Z,4.36
2019-02-23T05:06:21.113Z,4.37
2019-02-23T05:08:52.106Z,4.33
2019-02-23T05:11:22.987Z,4.25
2019-02-23T05:13:53.980Z,4.19
2019-02-23T05:16:24.754Z,4.06
2019-02-23T05:18:55.622Z,3.97
2019-02-23T05:21:27.051Z,3.96
2019-02-23T05:23:58.219Z,3.93
2019-02-23T05:26:29.015Z,3.88
2019-02-23T05:29:00.000Z,3.86
2019-02-23T05:31:31.196Z,3.93
2019-02-23T05:34:02.227Z,3.83
2019-02-23T05:36:33.079Z,3.92
2019-02-23T05:39:04.751Z,3.92
2019-02-23T05:41:35.792Z,3.90
2019-02-23T05:44:06.849Z,3.75
2019-02-23T05:46:37.650Z,3.70
2019-02-23T05:49:09.669Z,3.54
2019-02-23T05:51:40.449Z,3.56
2019-02-23T05:54:11.453Z,3.53
2019-02-23T05:56:42.341Z,3.55
2019-02-23T05:59:13.237Z,3.51
2019-02-23T06:01:44.011Z,3.46
2019-02-23T06:04:15.014Z,3.52
2019-02-23T06:06:45.978Z,3.71
2019-02-23T06:09:16.881Z,3.64
2019-02-23T06:11:47.563Z,3.67
2019-02-23T06:14:18.741Z,3.66
2019-02-23T06:16:49.623Z,3.56
2019-02-23T06:19:20.615Z,3.37
2019-02-23T06:21:53.987Z,3.39
2019-02-23T06:24:24.878Z,3.32
2019-02-23T06:26:55.837Z,3.35
2019-02-23T06:29:26.723Z,3.30
2019-02-23T06:31:57.636Z,3.30
2019-02-23T06:34:28.537Z,3.27
2019-02-23T06:36:59.409Z,3.36
2019-02-23T06:39:30.448Z,3.41
2019-02-23T06:42:01.268Z,3.41
2019-02-23T06:44:32.170Z,3.42
2019-02-23T06:47:03.210Z,3.49
2019-02-23T06:49:34.214Z,3.56
2019-02-23T06:52:05.230Z,3.64
2019-02-23T06:54:36.039Z,3.68
2019-02-23T06:57:06.924Z,3.65
2019-02-23T06:59:37.999Z,3.66
2019-02-23T07:02:08.900Z,3.64
2019-02-23T07:04:39.956Z,3.63
2019-02-23T07:07:11.902Z,3.57
2019-02-23T07:09:42.892Z,3.57
2019-02-23T07:12:13.661Z,3.58
2019-02-23T07:14:44.561Z,3.59
2019-02-23T07:17:15.333Z,3.59
2019-02-23T07:19:46.234Z,3.64
2019-02-23T07:22:17.006Z,3.65
2019-02-23T07:24:47.844Z,3.65
2019-02-23T07:27:18.673Z,3.75
2019-02-23T07:29:49.572Z,3.80
2019-02-23T07:32:20.350Z,3.81
2019-02-23T07:34:51.256Z,3.77
2019-02-23T07:37:22.221Z,3.85
2019-02-23T07:39:53.252Z,3.95
2019-02-23T07:42:24.313Z,4.05
2019-02-23T07:44:55.302Z,4.13
2019-02-23T07:47:26.112Z,4.17
2019-02-23T07:49:57.995Z,4.24
2019-02-23T07:52:28.880Z,4.29
2019-02-23T07:54:59.777Z,4.34
2019-02-23T07:57:30.664Z,4.39
2019-02-23T08:00:01.540Z,4.48
2019-02-23T08:02:32.552Z,4.59
2019-02-23T08:05:03.932Z,4.61
2019-02-23T08:07:35.135Z,4.64
2019-02-23T08:10:06.534Z,4.63
2019-02-23T08:12:37.213Z,4.60
2019-02-23T08:15:08.607Z,4.68
2019-02-23T08:17:39.515Z,4.74
2019-02-23T08:20:10.514Z,4.77
2019-02-23T08:22:41.383Z,4.90
2019-02-23T08:25:12.254Z,4.97
2019-02-23T08:27:43.050Z,5.12
2019-02-23T08:30:14.149Z,5.21
2019-02-23T08:32:44.696Z,5.38
2019-02-23T08:35:15.633Z,5.38
2019-02-23T08:37:46.399Z,5.45
2019-02-23T08:40:17.378Z,5.71
2019-02-23T08:42:48.266Z,5.74
2019-02-23T08:45:19.203Z,5.87
2019-02-23T08:47:50.083Z,5.99
2019-02-23T08:50:21.102Z,6.04
2019-02-23T08:52:52.083Z,6.04
2019-02-23T08:55:22.965Z,6.23
2019-02-23T08:57:53.942Z,6.38
2019-02-23T09:00:24.958Z,6.36
2019-02-23T09:02:56.225Z,6.57
2019-02-23T09:05:27.228Z,6.64
2019-02-23T09:07:58.651Z,6.72
2019-02-23T09:10:29.515Z,6.75
2019-02-23T09:13:01.343Z,6.87
2019-02-23T09:15:32.220Z,7.03
2019-02-23T09:18:03.209Z,7.05
2019-02-23T09:20:33.988Z,7.12
2019-02-23T09:23:04.795Z,7.24
2019-02-23T09:25:35.962Z,7.31
2019-02-23T09:28:06.862Z,7.32
2019-02-23T09:30:37.787Z,7.28
2019-02-23T09:33:10.062Z,7.37
2019-02-23T09:35:40.853Z,7.37
2019-02-23T09:38:11.744Z,7.56
2019-02-23T09:40:42.731Z,7.67
2019-02-23T09:43:13.561Z,7.71
2019-02-23T09:45:44.568Z,7.87
2019-02-23T09:48:15.559Z,7.89
2019-02-23T09:50:46.552Z,7.91
2019-02-23T09:53:17.710Z,7.97
2019-02-23T09:55:49.313Z,8.02
2019-02-23T09:58:20.236Z,8.20
2019-02-23T10:00:51.241Z,8.36
2019-02-23T10:03:22.205Z,8.42
2019-02-23T10:05:53.078Z,8.42
2019-02-23T10:08:24.129Z,8.43
2019-02-23T10:10:57.506Z,8.52
2019-02-23T10:13:27.597Z,8.58
2019-02-23T10:15:58.855Z,8.66
2019-02-23T10:18:29.687Z,8.66
2019-02-23T10:21:00.950Z,8.71
2019-02-23T10:23:31.747Z,8.76
2019-02-23T10:26:02.719Z,8.71
2019-02-23T10:28:33.551Z,8.79
2019-02-23T10:31:04.842Z,8.83
2019-02-23T10:33:38.468Z,8.84
2019-02-23T10:36:08.358Z,9.00
2019-02-23T10:38:39.235Z,9.00
2019-02-23T10:41:10.426Z,9.10
2019-02-23T10:43:41.650Z,9.12
2019-02-23T10:46:12.635Z,9.30
2019-02-23T10:48:45.543Z,9.38
2019-02-23T10:51:16.527Z,9.56
2019-02-23T10:53:47.528Z,9.71
2019-02-23T10:56:18.710Z,9.63
2019-02-23T10:58:49.627Z,9.68
2019-02-23T11:01:20.687Z,9.80
2019-02-23T11:03:51.512Z,9.83
2019-02-23T11:06:22.500Z,9.96
2019-02-23T11:08:56.540Z,10.06
2019-02-23T11:11:27.799Z,10.19
2019-02-23T11:13:58.638Z,10.09
2019-02-23T11:16:30.527Z,10.13
2019-02-23T11:19:02.972Z,10.14
2019-02-23T11:21:33.850Z,10.14
2019-02-23T11:24:05.874Z,10.13
2019-02-23T11:26:36.853Z,10.25
2019-02-23T11:29:07.734Z,10.31
2019-02-23T11:31:39.293Z,10.37
2019-02-23T11:34:10.165Z,10.42
2019-02-23T11:36:41.802Z,10.44
2019-02-23T11:39:12.627Z,10.48
2019-02-23T11:41:43.510Z,10.45
2019-02-23T11:44:14.453Z,10.55
2019-02-23T11:47:00.009Z,10.55
2019-02-23T11:49:18.131Z,10.66
2019-02-23T11:51:49.403Z,10.68
2019-02-23T11:54:20.399Z,10.80
2019-02-23T11:56:51.455Z,10.87
2019-02-23T11:59:22.290Z,10.89
2019-02-23T12:01:53.372Z,10.95
2019-02-23T12:04:24.168Z,11.08
2019-02-23T12:06:55.132Z,11.13
2019-02-23T12:09:25.937Z,11.13
2019-02-23T12:11:56.821Z,11.21
2019-02-23T12:14:27.615Z,11.24
2019-02-23T12:16:58.487Z,11.40
2019-02-23T12:19:29.377Z,11.43
2019-02-23T12:22:00.276Z,11.62
2019-02-23T12:24:31.165Z,11.63
2019-02-23T12:27:02.052Z,11.68
2019-02-23T12:29:32.840Z,11.67
2019-02-23T12:32:03.815Z,11.88
2019-02-23T12:34:34.602Z,12.05
2019-02-23T12:37:05.578Z,12.12
2019-02-23T12:39:36.475Z,12.19
2019-02-23T12:42:07.263Z,12.29
2019-02-23T12:44:38.058Z,12.35
2019-02-23T12:47:08.947Z,12.30
2019-02-23T12:49:39.835Z,12.26
2019-02-23T12:52:10.896Z,12.33
2019-02-23T12:54:41.797Z,12.37
2019-02-23T12:57:12.801Z,12.46
2019-02-23T12:59:43.587Z,12.45
2019-02-23T13:02:14.564Z,12.42
2019-02-23T13:04:46.487Z,12.44
2019-02-23T13:07:17.384Z,12.47
2019-02-23T13:09:51.439Z,12.50
2019-02-23T13:12:36.152Z,12.46
2019-02-23T13:15:32.524Z,12.44
2019-02-23T13:18:23.638Z,12.46
2019-02-23T13:21:30.312Z,12.51
2019-02-23T13:24:14.003Z,12.52
2019-02-23T13:27:07.005Z,12.39
2019-02-23T13:30:08.051Z,12.49
2019-02-23T13:33:16.773Z,12.49
2019-02-23T13:36:21.664Z,12.59
2019-02-23T13:39:35.863Z,12.76
2019-02-23T13:42:49.831Z,12.79
2019-02-23T13:46:13.381Z,12.79
2019-02-23T13:49:21.903Z,12.83
2019-02-23T13:52:15.074Z,12.77
2019-02-23T13:55:37.813Z,12.76
2019-02-23T13:58:18.992Z,12.78
2019-02-23T14:01:31.465Z,12.79
2019-02-23T14:04:55.004Z,12.79
2019-02-23T14:07:50.131Z,12.94
2019-02-23T14:11:04.854Z,12.93
2019-02-23T14:14:16.572Z,13.13
2019-02-23T14:17:25.431Z,13.13
2019-02-23T14:20:19.348Z,13.21
2019-02-23T14:23:55.208Z,13.05
2019-02-23T14:27:34.551Z,13.00
2019-02-23T14:30:58.125Z,13.03
2019-02-23T14:33:51.643Z,13.00
2019-02-23T14:36:41.487Z,12.79
2019-02-23T14:39:46.351Z,12.72
2019-02-23T14:42:56.266Z,12.60
2019-02-23T14:46:06.543Z,12.55
2019-02-23T14:48:57.687Z,12.58
2019-02-23T14:52:15.564Z,12.54
2019-02-23T14:55:09.617Z,12.63
2019-02-23T14:58:27.851Z,12.64
2019-02-23T15:01:33.144Z,12.61
2019-02-23T15:04:35.067Z,12.60
2019-02-23T15:07:43.016Z,12.61
2019-02-23T15:10:36.843Z,12.61
2019-02-23T15:13:34.058Z,12.50
2019-02-23T15:16:51.577Z,12.53
2019-02-23T15:20:11.312Z,12.46
2019-02-23T15:23:18.151Z,12.46
2019-02-23T15:26:24.507Z,12.35
2019-02-23T15:29:31.935Z,12.27
2019-02-23T15:32:40.114Z,12.25
2019-02-23T15:35:56.621Z,12.23
2019-02-23T15:38:54.919Z,12.20
2019-02-23T15:41:59.206Z,12.17
2019-02-23T15:45:01.133Z,12.18
2019-02-23T15:48:21.585Z,12.12
2019-02-23T15:50:52.582Z,12.18
2019-02-23T15:53:23.401Z,12.14
2019-02-23T15:55:54.255Z,12.07
2019-02-23T15:58:25.148Z,12.01
2019-02-23T16:00:56.531Z,11.98
2019-02-23T16:03:27.414Z,11.95
2019-02-23T16:05:58.591Z,11.83
2019-02-23T16:08:29.418Z,11.79
2019-02-23T16:11:00.404Z,11.73
2019-02-23T16:13:31.192Z,11.65
2019-02-23T16:16:02.165Z,11.57
2019-02-23T16:18:32.951Z,11.57
2019-02-23T16:21:03.801Z,11.51
2019-02-23T16:23:35.809Z,11.42
2019-02-23T16:26:06.692Z,11.40
2019-02-23T16:28:37.567Z,11.37
2019-02-23T16:31:08.464Z,11.34
2019-02-23T16:33:39.747Z,11.27
2019-02-23T16:36:10.558Z,11.17
2019-02-23T16:38:41.731Z,11.06
2019-02-23T16:41:12.542Z,11.03
2019-02-23T16:43:43.313Z,10.97
2019-02-23T16:46:14.190Z,10.81
2019-02-23T16:48:45.079Z,10.75
2019-02-23T16:51:15.869Z,10.65
2019-02-23T16:53:48.923Z,10.65
2019-02-23T16:56:19.400Z,10.57
2019-02-23T16:58:50.287Z,10.46
2019-02-23T17:01:21.071Z,10.45
2019-02-23T17:03:51.968Z,10.32
2019-02-23T17:06:22.922Z,10.27
2019-02-23T17:08:54.015Z,10.19
2019-02-23T17:11:24.912Z,10.16
2019-02-23T17:13:55.950Z,10.06
2019-02-23T17:16:26.892Z,10.01
2019-02-23T17:18:58.699Z,9.93
2019-02-23T17:21:29.490Z,9.85
2019-02-23T17:24:00.416Z,9.78
2019-02-23T17:26:31.175Z,9.74
2019-02-23T17:29:02.222Z,9.67
2019-02-23T17:31:33.050Z,9.60
2019-02-23T17:34:03.969Z,9.58
2019-02-23T17:36:34.709Z,9.52
2019-02-23T17:39:06.241Z,9.44
2019-02-23T17:41:38.731Z,9.40
2019-02-23T17:44:09.933Z,9.37
2019-02-23T17:46:40.924Z,9.31
2019-02-23T17:49:11.864Z,9.24
2019-02-23T17:51:42.702Z,9.16
2019-02-23T17:54:13.701Z,9.14
2019-02-23T17:56:44.586Z,9.15
2019-02-23T17:59:15.653Z,9.14
2019-02-23T18:01:46.463Z,9.11
2019-02-23T18:04:17.434Z,9.10
2019-02-23T18:06:48.222Z,9.07
2019-02-23T18:09:19.247Z,9.00
2019-02-23T18:11:50.122Z,9.04
2019-02-23T18:14:21.504Z,9.03
2019-02-23T18:16:52.297Z,9.00
2019-02-23T18:19:23.648Z,8.91
2019-02-23T18:21:54.485Z,8.92
2019-02-23T18:24:25.664Z,8.95
2019-02-23T18:26:56.461Z,8.96
2019-02-23T18:29:27.507Z,8.94
2019-02-23T18:31:58.435Z,8.90
2019-02-23T18:34:29.442Z,8.92
2019-02-23T18:37:00.218Z,8.85
2019-02-23T18:39:32.134Z,8.85
2019-02-23T18:42:03.014Z,8.76
2019-02-23T18:44:33.993Z,8.72
2019-02-23T18:47:04.906Z,8.64
2019-02-23T18:49:35.958Z,8.58
2019-02-23T18:52:06.763Z,8.59
2019-02-23T18:54:37.804Z,8.48
2019-02-23T18:57:08.658Z,8.44
2019-02-23T18:59:39.697Z,8.45
2019-02-23T19:02:10.641Z,8.44
2019-02-23T19:04:42.724Z,8.39
2019-02-23T19:07:13.618Z,8.29
2019-02-23T19:09:44.781Z,8.36
2019-02-23T19:12:17.151Z,8.31
2019-02-23T19:14:47.898Z,8.25
2019-02-23T19:17:18.762Z,8.24
2019-02-23T19:19:49.707Z,8.22
2019-02-23T19:22:20.517Z,8.10
2019-02-23T19:24:51.327Z,8.06
2019-02-23T19:27:22.497Z,8.03
2019-02-23T19:29:53.310Z,7.94
2019-02-23T19:32:24.253Z,7.93
2019-02-23T19:34:55.074Z,7.89
2019-02-23T19:37:26.062Z,7.95
2019-02-23T19:39:56.965Z,7.84
2019-02-23T19:42:27.858Z,7.85
2019-02-23T19:44:58.743Z,7.78
2019-02-23T19:47:33.518Z,7.78
2019-02-23T19:50:14.635Z,7.73
2019-02-23T19:52:45.675Z,7.76
2019-02-23T19:55:17.442Z,7.81
2019-02-23T19:57:48.437Z,7.81
2019-02-23T20:00:20.237Z,7.74
2019-02-23T20:02:51.335Z,7.77
2019-02-23T20:05:22.221Z,7.68
2019-02-23T20:07:53.274Z,7.64
2019-02-23T20:10:24.081Z,7.64
2019-02-23T20:12:55.250Z,7.61
2019-02-23T20:15:26.161Z,7.55
2019-02-23T20:17:57.069Z,7.56
2019-02-23T20:20:27.853Z,7.50
2019-02-23T20:22:58.741Z,7.42
2019-02-23T20:25:29.631Z,7.37
2019-02-23T20:28:00.517Z,7.30
2019-02-23T20:30:31.503Z,7.22
2019-02-23T20:33:03.591Z,7.18
2019-02-23T20:35:34.599Z,7.10
2019-02-23T20:38:05.497Z,6.93
2019-02-23T20:40:36.274Z,6.95
2019-02-23T20:43:07.214Z,6.93
2019-02-23T20:45:38.162Z,6.95
2019-02-23T20:48:09.247Z,6.95
2019-02-23T20:50:40.284Z,6.86
2019-02-23T20:53:11.495Z,6.85
2019-02-23T20:55:42.446Z,6.87
2019-02-23T20:58:14.384Z,6.81
2019-02-23T21:00:45.217Z,6.74
2019-02-23T21:03:16.111Z,6.74
2019-02-23T21:05:47.006Z,6.71
2019-02-23T21:08:17.880Z,6.74
2019-02-23T21:10:48.890Z,6.77
2019-02-23T21:13:20.758Z,6.77
2019-02-23T21:15:51.678Z,6.80
2019-02-23T21:18:23.692Z,6.90
2019-02-23T21:20:54.489Z,6.76
2019-02-23T21:23:25.555Z,6.66
2019-02-23T21:25:56.606Z,6.63
2019-02-23T21:28:27.437Z,6.71
2019-02-23T21:30:58.324Z,6.78
2019-02-23T21:33:29.225Z,6.79
2019-02-23T21:36:00.115Z,6.72
2019-02-23T21:38:31.094Z,6.76
2019-02-23T21:41:03.015Z,6.78
2019-02-23T21:43:33.939Z,6.76
2019-02-23T21:46:06.198Z,6.80
2019-02-23T21:48:37.209Z,6.63
2019-02-23T21:51:07.911Z,6.46
2019-02-23T21:53:38.887Z,6.36
2019-02-23T21:56:13.308Z,6.23
2019-02-23T21:58:45.286Z,6.13
2019-02-23T22:01:20.593Z,6.17
2019-02-23T22:03:54.202Z,6.26
2019-02-23T22:06:25.098Z,6.41
2019-02-23T22:08:56.009Z,6.42
2019-02-23T22:11:26.780Z,6.41
2019-02-23T22:13:57.636Z,6.35
2019-02-23T22:16:28.605Z,6.27
2019-02-23T22:18:59.363Z,6.16
2019-02-23T22:21:30.351Z,5.92
2019-02-23T22:24:01.263Z,5.87
2019-02-23T22:26:33.362Z,5.79
2019-02-23T22:29:04.368Z,5.77
2019-02-23T22:31:35.327Z,5.66
2019-02-23T22:34:06.274Z,5.63
2019-02-23T22:36:37.180Z,5.56
2019-02-23T22:39:08.754Z,5.44
2019-02-23T22:41:40.083Z,5.47
2019-02-23T22:44:11.085Z,5.40
2019-02-23T22:46:42.058Z,5.43
2019-02-23T22:49:13.134Z,5.42
2019-02-23T22:51:43.934Z,5.37
2019-02-23T22:54:14.904Z,5.30
2019-02-23T22:56:45.803Z,5.32
2019-02-23T22:59:16.786Z,5.23
2019-02-23T23:01:47.797Z,5.17
2019-02-23T23:04:18.940Z,5.12
2019-02-23T23:06:50.758Z,5.14
2019-02-23T23:09:21.519Z,5.07
2019-02-23T23:11:52.308Z,4.87
2019-02-23T23:14:23.196Z,4.80
2019-02-23T23:16:55.683Z,4.78
2019-02-23T23:19:26.720Z,4.77
2019-02-23T23:21:57.609Z,4.56
2019-02-23T23:24:28.487Z,4.43
2019-02-23T23:27:00.467Z,4.33
2019-02-23T23:29:31.283Z,4.27
2019-02-23T23:32:02.317Z,4.17
2019-02-23T23:34:33.250Z,4.12
2019-02-23T23:37:04.151Z,4.17
2019-02-23T23:39:34.989Z,4.13
2019-02-23T23:42:05.875Z,4.10
2019-02-23T23:44:36.848Z,4.09
2019-02-23T23:47:07.664Z,4.03
2019-02-23T23:49:38.550Z,3.94
2019-02-23T23:52:09.434Z,3.90
2019-02-23T23:54:40.493Z,3.82
2019-02-23T23:57:11.314Z,3.94
2019-02-23T23:59:42.174Z,3.91
